Time;durP1;ratioP1;P1;durP2;ratioP2;P2;SDS_P1;SDS_P2;PMS_P1;PMS_P2;Temp;Humidity;BMP_temperature;BMP_pressure;BME280_temperature;BME280_humidity;BME280_pressure;Samples;Min_cycle;Max_cycle;Signal;HPM_P1;HPM_P2
2021/08/14 00:00:06;;;;;;;1.30;0.70;;;18.80;65.80;;;;;;5057634;28;20025;-78
2021/08/14 00:02:31;;;;;;;2.53;0.93;;;18.80;65.90;;;;;;5056187;28;20032;-78
2021/08/14 00:04:57;;;;;;;2.08;0.70;;;18.80;66.20;;;;;;5056249;28;20372;-78
2021/08/14 00:07:23;;;;;;;2.97;0.90;;;18.80;65.90;;;;;;5070949;28;20048;-78
2021/08/14 00:09:49;;;;;;;1.52;0.60;;;18.80;66.30;;;;;;5056532;28;20031;-78
2021/08/14 00:12:15;;;;;;;1.30;0.75;;;18.80;66.10;;;;;;5056416;28;20021;-78
2021/08/14 00:14:43;;;;;;;1.48;0.80;;;18.80;66.60;;;;;;5055965;28;20036;-78
2021/08/14 00:17:08;;;;;;;1.83;0.90;;;18.70;66.90;;;;;;5056171;28;20491;-78
2021/08/14 00:19:34;;;;;;;1.63;0.80;;;18.70;67.20;;;;;;5055885;28;20017;-78
2021/08/14 00:22:00;;;;;;;1.40;0.70;;;18.70;67.50;;;;;;5071463;28;20021;-78
2021/08/14 00:24:26;;;;;;;1.50;0.90;;;18.70;67.00;;;;;;5054965;28;20033;-77
2021/08/14 00:26:51;;;;;;;0.98;0.60;;;18.80;67.10;;;;;;5055921;28;20024;-78
2021/08/14 00:29:18;;;;;;;1.05;0.52;;;18.70;67.30;;;;;;5056445;28;20071;-78
2021/08/14 00:31:51;;;;;;;1.85;0.80;;;18.70;67.70;;;;;;5054770;28;20021;-77
2021/08/14 00:34:17;;;;;;;1.20;0.70;;;18.70;67.70;;;;;;5054457;28;20056;-77
2021/08/14 00:36:43;;;;;;;1.10;0.73;;;18.60;67.50;;;;;;5054452;28;20021;-78
2021/08/14 00:39:08;;;;;;;1.20;0.60;;;18.60;67.80;;;;;;5054609;28;20025;-78
2021/08/14 00:41:34;;;;;;;1.83;0.70;;;18.60;68.00;;;;;;5069881;28;20107;-78
2021/08/14 00:44:02;;;;;;;1.67;0.80;;;18.50;68.10;;;;;;5071655;28;20060;-77
2021/08/14 00:46:29;;;;;;;1.42;0.65;;;18.50;68.30;;;;;;5054763;28;20039;-78
2021/08/14 00:48:56;;;;;;;1.48;0.73;;;18.50;68.20;;;;;;5055486;28;20021;-77
2021/08/14 00:51:22;;;;;;;2.70;1.00;;;18.30;69.40;;;;;;5055984;28;20479;-78
2021/08/14 00:53:47;;;;;;;1.80;1.00;;;18.30;69.50;;;;;;5055603;28;20092;-78
2021/08/14 00:56:13;;;;;;;1.85;0.80;;;18.30;69.10;;;;;;5056637;28;20115;-78
2021/08/14 00:58:39;;;;;;;1.45;0.80;;;18.30;69.50;;;;;;5074482;28;20028;-78
2021/08/14 01:01:05;;;;;;;1.25;0.60;;;18.30;69.20;;;;;;5075421;28;20028;-78
2021/08/14 01:03:32;;;;;;;1.48;0.77;;;18.30;69.00;;;;;;5056396;28;20032;-78
2021/08/14 01:06:01;;;;;;;0.98;0.65;;;18.30;68.80;;;;;;5054140;28;20054;-77
2021/08/14 01:08:27;;;;;;;1.57;0.93;;;18.30;68.90;;;;;;5055573;28;20021;-77
2021/08/14 01:10:53;;;;;;;2.58;0.80;;;18.30;68.50;;;;;;5069551;28;20130;-77
2021/08/14 01:13:19;;;;;;;1.33;0.80;;;18.30;68.70;;;;;;5055526;28;20079;-78
2021/08/14 01:15:49;;;;;;;1.20;0.80;;;18.30;68.60;;;;;;5055331;28;20017;-78
2021/08/14 01:18:16;;;;;;;2.45;0.90;;;18.20;69.20;;;;;;5055367;28;20024;-78
2021/08/14 01:20:43;;;;;;;1.77;1.00;;;18.10;69.40;;;;;;5055063;28;20037;-77
2021/08/14 01:23:20;;;;;;;1.65;0.80;;;18.00;69.90;;;;;;5055193;28;20033;-78
2021/08/14 01:25:58;;;;;;;1.20;0.70;;;17.90;69.60;;;;;;5054108;28;20036;-78
2021/08/14 01:28:24;;;;;;;1.80;0.88;;;17.90;69.70;;;;;;5055251;28;20080;-78
2021/08/14 01:30:50;;;;;;;1.80;1.15;;;18.00;69.50;;;;;;5055249;28;20527;-77
2021/08/14 01:33:15;;;;;;;1.20;0.80;;;18.00;69.20;;;;;;5057728;28;20112;-77
2021/08/14 01:35:42;;;;;;;1.98;0.95;;;17.90;70.00;;;;;;5077102;28;20066;-78
2021/08/14 01:38:09;;;;;;;1.77;1.17;;;17.90;70.00;;;;;;5078278;28;20039;-78
2021/08/14 01:40:34;;;;;;;1.90;0.90;;;17.90;70.20;;;;;;5079044;28;20021;-77
2021/08/14 01:43:00;;;;;;;1.45;0.82;;;17.80;70.30;;;;;;5078958;28;20049;-78
2021/08/14 01:45:26;;;;;;;1.80;0.82;;;17.90;69.90;;;;;;5062899;28;20032;-78
2021/08/14 01:47:51;;;;;;;1.45;0.80;;;17.90;69.50;;;;;;5059065;28;20037;-78
2021/08/14 01:50:17;;;;;;;1.50;0.80;;;17.90;69.50;;;;;;5062188;28;20051;-78
2021/08/14 01:52:43;;;;;;;1.88;1.02;;;17.90;69.80;;;;;;5079108;28;20505;-78
2021/08/14 01:55:08;;;;;;;1.70;0.80;;;17.90;69.90;;;;;;5078879;28;20107;-78
2021/08/14 01:57:34;;;;;;;1.27;0.88;;;17.80;69.80;;;;;;5067293;28;20025;-78
2021/08/14 02:00:00;;;;;;;1.50;0.60;;;17.80;70.50;;;;;;5077681;28;20023;-78
2021/08/14 02:02:25;;;;;;;1.23;0.80;;;17.70;70.30;;;;;;5074907;28;20029;-78
2021/08/14 02:04:51;;;;;;;1.73;1.00;;;17.70;70.70;;;;;;5058943;28;20032;-78
2021/08/14 02:07:17;;;;;;;1.50;1.10;;;17.70;71.10;;;;;;5058876;28;20064;-78
2021/08/14 02:09:43;;;;;;;0.90;0.60;;;17.70;70.40;;;;;;5058684;28;20387;-78
2021/08/14 02:12:09;;;;;;;1.95;0.90;;;17.70;71.00;;;;;;5058684;28;20029;-77
2021/08/14 02:14:37;;;;;;;1.60;0.70;;;17.60;70.90;;;;;;5058468;28;20120;-78
2021/08/14 02:17:03;;;;;;;1.70;0.85;;;17.70;70.90;;;;;;5058400;28;20032;-78
2021/08/14 02:19:29;;;;;;;1.45;0.95;;;17.70;70.80;;;;;;5058493;28;20021;-78
2021/08/14 02:21:54;;;;;;;1.88;0.80;;;17.60;71.60;;;;;;5058362;28;20033;-78
2021/08/14 02:24:20;;;;;;;1.70;0.80;;;17.50;71.60;;;;;;5058212;28;20498;-78
2021/08/14 02:26:45;;;;;;;1.58;1.00;;;17.40;72.70;;;;;;5058457;28;20052;-78
2021/08/14 02:29:11;;;;;;;1.67;0.80;;;17.40;72.30;;;;;;5058409;28;20021;-77
2021/08/14 02:31:38;;;;;;;2.47;0.80;;;17.30;72.30;;;;;;5058044;28;20141;-77
2021/08/14 02:34:03;;;;;;;1.50;1.00;;;17.40;72.00;;;;;;5076252;28;20491;-78
2021/08/14 02:36:29;;;;;;;1.70;1.00;;;17.50;71.80;;;;;;5078043;28;20101;-78
2021/08/14 02:38:55;;;;;;;1.45;0.80;;;17.40;72.50;;;;;;5078177;28;20391;-78
2021/08/14 02:41:20;;;;;;;1.27;0.80;;;17.30;72.90;;;;;;5065344;28;20118;-78
2021/08/14 02:43:47;;;;;;;2.00;0.90;;;17.20;73.10;;;;;;5057616;28;20049;-78
2021/08/14 02:46:13;;;;;;;2.65;0.80;;;17.20;73.00;;;;;;5067606;28;20029;-77
2021/08/14 02:48:38;;;;;;;2.08;0.93;;;17.20;73.00;;;;;;5077848;28;20039;-77
2021/08/14 02:51:04;;;;;;;1.80;1.00;;;17.20;72.80;;;;;;5060887;28;20033;-78
2021/08/14 02:53:30;;;;;;;2.03;1.08;;;17.20;72.60;;;;;;5057807;28;20031;-77
2021/08/14 02:55:56;;;;;;;1.88;1.00;;;17.30;72.40;;;;;;5057586;28;20383;-77
2021/08/14 02:58:22;;;;;;;1.33;0.70;;;17.20;72.50;;;;;;5056322;28;20025;-78
2021/08/14 03:00:48;;;;;;;1.92;1.00;;;17.20;72.70;;;;;;5057613;28;20041;-78
2021/08/14 03:03:13;;;;;;;1.98;0.90;;;17.20;72.30;;;;;;5056086;28;20120;-78
2021/08/14 03:05:40;;;;;;;1.83;1.08;;;17.30;72.20;;;;;;5057865;28;20440;-77
2021/08/14 03:08:09;;;;;;;1.42;0.85;;;17.30;71.70;;;;;;5057500;28;20044;-78
2021/08/14 03:10:37;;;;;;;1.50;0.90;;;17.30;71.50;;;;;;5057555;28;20626;-78
2021/08/14 03:13:03;;;;;;;1.17;0.95;;;17.20;72.20;;;;;;5057394;28;20291;-77
2021/08/14 03:15:29;;;;;;;1.40;0.90;;;17.20;71.90;;;;;;5057270;28;20029;-77
2021/08/14 03:17:55;;;;;;;2.35;1.20;;;17.10;71.50;;;;;;5057271;28;20032;-78
2021/08/14 03:20:20;;;;;;;1.30;0.80;;;17.10;71.60;;;;;;5057825;28;20056;-78
2021/08/14 03:22:46;;;;;;;1.58;0.93;;;17.00;71.60;;;;;;5077348;28;20066;-77
2021/08/14 03:25:12;;;;;;;1.88;1.13;;;17.00;72.10;;;;;;5075933;28;20063;-77
2021/08/14 03:27:37;;;;;;;1.35;0.90;;;16.90;72.50;;;;;;5077228;28;20087;-77
2021/08/14 03:30:05;;;;;;;1.10;0.70;;;16.90;72.10;;;;;;5069438;28;20025;-77
2021/08/14 03:32:30;;;;;;;1.73;0.85;;;16.90;72.30;;;;;;5056945;28;20033;-77
2021/08/14 03:34:56;;;;;;;1.67;1.00;;;16.80;72.20;;;;;;5056775;28;20071;-78
2021/08/14 03:37:21;;;;;;;1.30;0.82;;;16.90;72.20;;;;;;5072669;28;20063;-78
2021/08/14 03:39:50;;;;;;;2.10;1.05;;;16.90;72.10;;;;;;5072175;28;20029;-77
2021/08/14 03:42:16;;;;;;;1.20;0.60;;;16.90;72.00;;;;;;5076295;28;20024;-77
2021/08/14 03:44:41;;;;;;;1.13;0.80;;;16.90;71.90;;;;;;5075218;28;20181;-78
2021/08/14 03:47:07;;;;;;;1.30;0.80;;;16.90;71.60;;;;;;5057167;28;20036;-78
2021/08/14 03:49:33;;;;;;;1.02;0.70;;;16.90;71.80;;;;;;5056944;28;20029;-78
2021/08/14 03:51:58;;;;;;;1.40;1.00;;;16.80;71.60;;;;;;5055261;28;20028;-78
2021/08/14 03:54:24;;;;;;;2.17;1.02;;;16.80;72.00;;;;;;5075742;28;20028;-78
2021/08/14 03:56:52;;;;;;;2.05;1.08;;;16.80;72.20;;;;;;5070358;28;20032;-77
2021/08/14 03:59:18;;;;;;;1.80;0.98;;;16.70;72.60;;;;;;5055508;28;20017;-78
2021/08/14 04:01:44;;;;;;;1.38;0.90;;;16.60;72.40;;;;;;5055265;28;20539;-77
2021/08/14 04:04:09;;;;;;;1.50;0.93;;;16.70;72.00;;;;;;5056555;28;20049;-78
2021/08/14 04:06:35;;;;;;;1.27;0.90;;;16.70;72.00;;;;;;5071044;28;20036;-78
2021/08/14 04:09:00;;;;;;;1.40;0.90;;;16.70;72.00;;;;;;5076387;28;20031;-77
2021/08/14 04:11:26;;;;;;;1.33;0.90;;;16.60;71.70;;;;;;5075151;28;20028;-78
2021/08/14 04:13:55;;;;;;;1.52;0.80;;;16.50;72.10;;;;;;5075172;28;20107;-78
2021/08/14 04:16:20;;;;;;;1.50;1.00;;;16.50;72.30;;;;;;5057780;28;20112;-78
2021/08/14 04:18:46;;;;;;;1.92;0.90;;;16.50;72.30;;;;;;5055022;28;20110;-77
2021/08/14 04:21:12;;;;;;;1.02;0.70;;;16.50;72.40;;;;;;5056055;28;20028;-78
2021/08/14 04:23:37;;;;;;;1.30;1.00;;;16.50;72.30;;;;;;5055135;28;20032;-78
2021/08/14 04:26:03;;;;;;;2.33;1.17;;;16.50;72.70;;;;;;5054891;28;20025;-78
2021/08/14 04:28:29;;;;;;;1.33;0.85;;;16.50;72.80;;;;;;5054643;28;20025;-78
2021/08/14 04:30:54;;;;;;;1.88;0.90;;;16.50;73.00;;;;;;5054572;28;20860;-77
2021/08/14 04:33:20;;;;;;;1.48;1.08;;;16.50;72.60;;;;;;5070053;28;20032;-78
2021/08/14 04:35:47;;;;;;;1.65;1.10;;;16.50;72.60;;;;;;5056185;28;20094;-78
2021/08/14 04:38:12;;;;;;;1.40;1.20;;;16.50;73.00;;;;;;5055983;28;20017;-78
2021/08/14 04:40:38;;;;;;;2.15;1.00;;;16.40;73.70;;;;;;5062207;28;20107;-77
2021/08/14 04:43:04;;;;;;;1.58;0.90;;;16.40;73.60;;;;;;5059277;28;20041;-77
2021/08/14 04:45:29;;;;;;;1.15;0.82;;;16.40;73.10;;;;;;5055585;28;20025;-78
2021/08/14 04:48:05;;;;;;;1.58;1.00;;;16.40;73.20;;;;;;5055940;28;20044;-77
2021/08/14 04:50:30;;;;;;;1.70;1.00;;;16.30;73.20;;;;;;5055665;28;20021;-78
2021/08/14 04:52:56;;;;;;;1.20;1.00;;;16.30;73.30;;;;;;5069877;28;20025;-78
2021/08/14 04:55:22;;;;;;;2.13;0.90;;;16.30;73.20;;;;;;5055512;28;20020;-78
2021/08/14 04:57:47;;;;;;;1.50;1.00;;;16.30;73.50;;;;;;5071032;28;20045;-78
2021/08/14 05:00:13;;;;;;;1.50;0.95;;;16.30;73.10;;;;;;5055589;28;20025;-78
2021/08/14 05:02:39;;;;;;;1.88;1.05;;;16.30;73.50;;;;;;5054050;28;20480;-77
2021/08/14 05:05:08;;;;;;;2.35;1.10;;;16.20;73.70;;;;;;5055416;28;20056;-78
2021/08/14 05:07:35;;;;;;;1.63;0.90;;;16.10;74.00;;;;;;5055392;28;20444;-78
2021/08/14 05:10:01;;;;;;;1.30;1.00;;;16.00;74.40;;;;;;5055486;28;20029;-77
2021/08/14 05:12:27;;;;;;;1.58;0.90;;;16.20;73.90;;;;;;5055506;28;20396;-77
2021/08/14 05:14:52;;;;;;;1.02;0.77;;;16.20;73.40;;;;;;5053937;28;20033;-77
2021/08/14 05:17:18;;;;;;;1.45;0.85;;;16.30;73.10;;;;;;5067005;28;20021;-77
2021/08/14 05:19:44;;;;;;;3.22;1.10;;;16.20;73.30;;;;;;5075426;28;20029;-78
2021/08/14 05:22:09;;;;;;;1.83;1.02;;;16.20;73.30;;;;;;5061674;28;20025;-78
2021/08/14 05:24:35;;;;;;;1.52;1.00;;;16.10;73.30;;;;;;5055342;28;20029;-78
2021/08/14 05:27:01;;;;;;;1.98;0.70;;;16.10;73.10;;;;;;5055637;28;20033;-77
2021/08/14 05:29:26;;;;;;;1.25;0.80;;;16.10;73.20;;;;;;5054146;28;20021;-77
2021/08/14 05:31:52;;;;;;;1.50;1.00;;;16.10;72.90;;;;;;5055081;28;20033;-78
2021/08/14 05:34:18;;;;;;;1.58;0.90;;;16.20;72.70;;;;;;5055199;28;20037;-78
2021/08/14 05:36:43;;;;;;;1.48;0.80;;;16.20;72.50;;;;;;5054956;28;20025;-78
2021/08/14 05:39:09;;;;;;;1.13;0.80;;;16.20;72.80;;;;;;5055195;28;20033;-78
2021/08/14 05:41:39;;;;;;;1.00;0.70;;;16.10;72.90;;;;;;5069138;28;20419;-78
2021/08/14 05:44:06;;;;;;;2.20;0.90;;;16.20;72.50;;;;;;5072766;28;20144;-78
2021/08/14 05:46:32;;;;;;;1.20;0.70;;;16.20;72.50;;;;;;5055391;28;20033;-77
2021/08/14 05:48:57;;;;;;;1.67;1.00;;;16.30;72.20;;;;;;5054987;28;20040;-77
2021/08/14 05:51:24;;;;;;;1.20;0.70;;;16.20;72.30;;;;;;5055048;28;20037;-77
2021/08/14 05:53:50;;;;;;;1.40;0.88;;;16.20;72.70;;;;;;5066655;28;20094;-78
2021/08/14 05:56:15;;;;;;;1.35;0.90;;;16.20;72.70;;;;;;5075072;28;20028;-78
2021/08/14 05:58:41;;;;;;;1.50;0.80;;;16.20;72.90;;;;;;5073128;28;20029;-78
2021/08/14 06:01:07;;;;;;;1.20;0.70;;;16.30;72.50;;;;;;5070232;28;20029;-78
2021/08/14 06:03:35;;;;;;;1.88;0.88;;;16.30;72.70;;;;;;5054862;28;20025;-77
2021/08/14 06:06:01;;;;;;;1.58;0.80;;;16.30;72.80;;;;;;5055081;28;20111;-78
2021/08/14 06:08:26;;;;;;;0.93;0.68;;;16.30;72.60;;;;;;5054712;28;20025;-78
2021/08/14 06:10:52;;;;;;;1.63;0.93;;;16.30;72.50;;;;;;5054895;28;20033;-77
2021/08/14 06:13:18;;;;;;;1.30;0.70;;;16.40;72.50;;;;;;5054788;28;20032;-77
2021/08/14 06:15:43;;;;;;;0.75;0.55;;;16.50;72.30;;;;;;5054801;28;20088;-77
2021/08/14 06:18:11;;;;;;;1.58;0.60;;;16.60;72.20;;;;;;5055573;28;20105;-78
2021/08/14 06:20:37;;;;;;;3.08;0.90;;;16.60;72.80;;;;;;5061115;28;20084;-78
2021/08/14 06:23:03;;;;;;;1.17;0.70;;;16.60;72.50;;;;;;5077229;28;20025;-77
2021/08/14 06:25:29;;;;;;;1.30;0.80;;;16.60;72.90;;;;;;5074990;28;20040;-78
2021/08/14 06:27:54;;;;;;;1.27;0.88;;;16.60;72.80;;;;;;5058718;28;20029;-77
2021/08/14 06:30:20;;;;;;;2.25;0.80;;;16.70;72.60;;;;;;5057219;28;20032;-77
2021/08/14 06:32:46;;;;;;;1.73;0.70;;;16.80;73.10;;;;;;5057392;28;20063;-78
2021/08/14 06:35:12;;;;;;;1.50;0.80;;;16.80;72.50;;;;;;5057024;28;20029;-78
2021/08/14 06:37:41;;;;;;;1.27;0.90;;;16.80;73.50;;;;;;5058360;28;20017;-77
2021/08/14 06:40:08;;;;;;;2.13;0.90;;;16.90;73.40;;;;;;5058699;28;20123;-77
2021/08/14 06:42:33;;;;;;;1.58;0.82;;;16.90;74.30;;;;;;5072544;28;20132;-77
2021/08/14 06:44:59;;;;;;;2.10;0.90;;;17.00;73.30;;;;;;5058025;28;20060;-77
2021/08/14 06:47:24;;;;;;;1.92;0.80;;;17.10;73.80;;;;;;5057025;28;20036;-77
2021/08/14 06:49:51;;;;;;;2.05;0.80;;;17.10;73.90;;;;;;5056765;28;20061;-78
2021/08/14 06:52:17;;;;;;;1.27;0.93;;;17.20;74.40;;;;;;5057857;28;20037;-77
2021/08/14 06:54:42;;;;;;;2.30;0.80;;;17.30;73.40;;;;;;5057722;28;20029;-78
2021/08/14 06:57:08;;;;;;;1.55;1.00;;;17.40;74.20;;;;;;5062155;28;20060;-77
2021/08/14 06:59:34;;;;;;;2.33;1.05;;;17.50;73.60;;;;;;5057835;28;20029;-78
2021/08/14 07:01:59;;;;;;;1.42;0.93;;;17.60;73.90;;;;;;5057538;28;20079;-78
2021/08/14 07:04:25;;;;;;;2.03;1.08;;;17.70;74.10;;;;;;5057648;28;20089;-78
2021/08/14 07:06:51;;;;;;;1.52;0.93;;;17.70;74.00;;;;;;5057410;28;20035;-78
2021/08/14 07:09:18;;;;;;;1.50;0.85;;;17.80;74.40;;;;;;5057817;28;20032;-78
2021/08/14 07:11:45;;;;;;;1.88;0.80;;;17.80;74.10;;;;;;5057595;28;20025;-78
2021/08/14 07:14:12;;;;;;;1.30;0.73;;;17.90;73.70;;;;;;5057231;28;20033;-78
2021/08/14 07:16:37;;;;;;;1.92;0.75;;;18.00;73.10;;;;;;5077529;28;20384;-77
2021/08/14 07:19:03;;;;;;;1.20;0.85;;;18.20;72.80;;;;;;5066083;28;20036;-78
2021/08/14 07:21:29;;;;;;;2.63;1.00;;;18.40;72.50;;;;;;5055953;28;20076;-78
2021/08/14 07:23:55;;;;;;;1.30;0.90;;;18.90;71.10;;;;;;5057078;28;20025;-78
2021/08/14 07:26:20;;;;;;;1.40;0.82;;;20.10;68.10;;;;;;5057210;28;20487;-78
2021/08/14 07:28:46;;;;;;;1.45;0.70;;;21.50;62.40;;;;;;5055805;28;20434;-78
2021/08/14 07:31:12;;;;;;;1.15;0.60;;;21.90;61.60;;;;;;5055227;28;20187;-79
2021/08/14 07:33:37;;;;;;;1.73;0.88;;;21.90;60.10;;;;;;5056796;28;20029;-78
2021/08/14 07:36:05;;;;;;;1.15;0.75;;;22.10;59.90;;;;;;5057099;28;20031;-78
2021/08/14 07:38:31;;;;;;;1.20;0.60;;;21.70;58.80;;;;;;5056896;28;20032;-78
2021/08/14 07:40:57;;;;;;;1.20;0.63;;;21.70;59.50;;;;;;5065663;28;20569;-78
2021/08/14 07:43:22;;;;;;;1.45;0.70;;;22.40;58.10;;;;;;5065018;28;20048;-76
2021/08/14 07:45:48;;;;;;;1.50;0.85;;;24.00;54.80;;;;;;5076704;28;20033;-76
2021/08/14 07:48:13;;;;;;;1.63;0.70;;;25.90;49.30;;;;;;5071391;28;20044;-76
2021/08/14 07:50:39;;;;;;;1.25;0.68;;;27.90;43.90;;;;;;5056821;28;20025;-76
2021/08/14 07:53:05;;;;;;;1.23;0.68;;;29.30;39.80;;;;;;5056534;28;20033;-77
2021/08/14 07:55:32;;;;;;;1.35;0.90;;;30.60;37.60;;;;;;5056578;28;20049;-76
2021/08/14 07:57:58;;;;;;;1.23;0.80;;;32.00;35.30;;;;;;5056582;28;20483;-77
2021/08/14 08:00:25;;;;;;;1.20;0.65;;;32.60;32.80;;;;;;5056460;28;20043;-77
2021/08/14 08:02:51;;;;;;;0.90;0.60;;;33.60;32.70;;;;;;5056268;28;20044;-77
2021/08/14 08:05:18;;;;;;;1.73;0.50;;;34.40;31.60;;;;;;5056492;28;20545;-77
2021/08/14 08:07:44;;;;;;;1.30;0.60;;;35.30;30.90;;;;;;5056460;28;20025;-77
2021/08/14 08:10:15;;;;;;;1.17;0.70;;;35.60;30.50;;;;;;5056262;28;20029;-77
2021/08/14 08:12:41;;;;;;;1.48;0.65;;;36.30;29.10;;;;;;5056451;28;20438;-78
2021/08/14 08:15:08;;;;;;;1.00;0.60;;;36.90;28.90;;;;;;5056212;28;20033;-78
2021/08/14 08:17:34;;;;;;;1.17;0.70;;;36.90;27.70;;;;;;5056075;28;20373;-77
2021/08/14 08:20:01;;;;;;;1.23;0.60;;;36.70;28.50;;;;;;5070517;28;20074;-77
2021/08/14 08:22:27;;;;;;;1.55;0.73;;;37.00;26.90;;;;;;5056114;28;20021;-78
2021/08/14 08:24:52;;;;;;;1.50;0.90;;;37.10;28.40;;;;;;5056159;28;20037;-77
2021/08/14 08:27:18;;;;;;;1.77;0.93;;;37.40;27.60;;;;;;5055884;28;20082;-78
2021/08/14 08:29:44;;;;;;;1.20;0.50;;;37.70;27.20;;;;;;5055899;28;20578;-78
2021/08/14 08:32:10;;;;;;;0.93;0.60;;;38.00;26.40;;;;;;5055842;28;20036;-78
2021/08/14 08:34:36;;;;;;;1.13;0.60;;;37.90;26.60;;;;;;5055665;28;20029;-78
2021/08/14 08:37:03;;;;;;;2.60;0.80;;;38.00;26.50;;;;;;5055933;28;20115;-78
2021/08/14 08:39:30;;;;;;;1.20;0.63;;;38.40;25.90;;;;;;5055793;28;20104;-78
2021/08/14 08:41:57;;;;;;;1.08;0.52;;;38.20;24.70;;;;;;5072537;28;20033;-78
2021/08/14 08:44:23;;;;;;;1.45;0.60;;;37.80;26.90;;;;;;5075857;28;20097;-78
2021/08/14 08:46:49;;;;;;;1.48;0.70;;;38.10;26.80;;;;;;5075723;28;20024;-78
2021/08/14 08:49:17;;;;;;;1.33;0.70;;;37.80;25.90;;;;;;5063745;28;20033;-77
2021/08/14 08:51:43;;;;;;;1.70;0.63;;;37.70;25.80;;;;;;5055861;28;20402;-77
2021/08/14 08:54:13;;;;;;;1.55;0.80;;;38.30;26.30;;;;;;5073281;28;20063;-77
2021/08/14 08:56:39;;;;;;;0.90;0.60;;;38.50;26.00;;;;;;5074362;28;20090;-78
2021/08/14 08:59:05;;;;;;;0.70;0.40;;;38.90;26.10;;;;;;5056021;28;20025;-78
2021/08/14 09:01:31;;;;;;;1.33;0.70;;;37.90;25.20;;;;;;5055607;28;20048;-77
2021/08/14 09:04:28;;;;;;;1.50;0.80;;;38.20;26.30;;;;;;5054077;28;20407;-77
2021/08/14 09:06:56;;;;;;;1.33;0.77;;;38.20;27.00;;;;;;5061908;28;20479;-78
2021/08/14 09:09:31;;;;;;;1.17;0.70;;;38.90;24.90;;;;;;5075786;28;20052;-77
2021/08/14 09:12:03;;;;;;;1.15;0.70;;;39.20;26.00;;;;;;5075426;28;20075;-77
2021/08/14 09:14:43;;;;;;;1.35;0.80;;;39.10;26.00;;;;;;5064781;28;20048;-77
2021/08/14 09:17:09;;;;;;;1.48;0.80;;;39.10;25.40;;;;;;5055362;28;20021;-77
2021/08/14 09:19:35;;;;;;;1.20;0.60;;;39.10;25.10;;;;;;5055297;28;20484;-78
2021/08/14 09:22:15;;;;;;;1.20;0.70;;;39.40;25.00;;;;;;5072080;28;20498;-77
2021/08/14 09:24:41;;;;;;;1.45;0.70;;;38.90;26.90;;;;;;5072615;28;20081;-77
2021/08/14 09:27:11;;;;;;;1.50;0.88;;;38.40;26.40;;;;;;5075402;28;20027;-77
2021/08/14 09:29:39;;;;;;;1.30;0.80;;;38.70;26.20;;;;;;5074012;28;20021;-77
2021/08/14 09:32:08;;;;;;;1.58;0.77;;;39.20;25.70;;;;;;5071829;28;20051;-77
2021/08/14 09:34:42;;;;;;;1.48;0.85;;;38.90;25.40;;;;;;5054118;28;20399;-77
2021/08/14 09:37:13;;;;;;;1.60;0.80;;;38.70;26.00;;;;;;5055304;28;20017;-77
2021/08/14 09:39:50;;;;;;;1.75;0.63;;;38.80;25.80;;;;;;5058276;28;20020;-77
2021/08/14 09:42:16;;;;;;;1.50;0.80;;;38.70;26.60;;;;;;5074981;28;20032;-78
2021/08/14 09:44:42;;;;;;;1.10;0.57;;;39.20;25.80;;;;;;5073080;28;20449;-77
2021/08/14 09:47:27;;;;;;;1.67;0.75;;;38.80;26.80;;;;;;5075070;28;20041;-77
2021/08/14 09:49:57;;;;;;;0.90;0.70;;;39.20;27.00;;;;;;5074928;28;20499;-77
2021/08/14 09:52:24;;;;;;;1.00;0.70;;;38.70;25.10;;;;;;5071779;28;20197;-77
2021/08/14 09:54:52;;;;;;;1.30;0.85;;;38.40;26.00;;;;;;5058765;28;20021;-77
2021/08/14 09:57:19;;;;;;;1.17;0.70;;;38.20;26.50;;;;;;5058989;28;20082;-77
2021/08/14 09:59:46;;;;;;;1.45;0.75;;;38.60;27.00;;;;;;5058952;28;20032;-77
2021/08/14 10:02:29;;;;;;;1.42;0.70;;;39.10;26.40;;;;;;5058548;28;20506;-78
2021/08/14 10:04:57;;;;;;;0.90;0.60;;;39.30;25.20;;;;;;5076939;28;20025;-77
2021/08/14 10:07:24;;;;;;;1.17;0.80;;;39.40;26.80;;;;;;5078814;28;20028;-77
2021/08/14 10:09:51;;;;;;;1.57;0.80;;;39.20;24.90;;;;;;5074440;28;20044;-77
2021/08/14 10:12:19;;;;;;;1.75;0.70;;;38.80;26.10;;;;;;5058769;28;20084;-78
2021/08/14 10:14:46;;;;;;;1.42;0.63;;;38.90;25.80;;;;;;5058291;28;20025;-78
2021/08/14 10:17:12;;;;;;;2.08;0.90;;;38.80;25.60;;;;;;5058513;28;20025;-77
2021/08/14 10:19:39;;;;;;;1.20;0.70;;;38.60;25.90;;;;;;5058616;28;20033;-77
2021/08/14 10:22:07;;;;;;;1.45;0.88;;;38.70;27.10;;;;;;5058333;28;20029;-78
2021/08/14 10:24:38;;;;;;;1.10;0.73;;;38.40;26.70;;;;;;5058384;28;20117;-77
2021/08/14 10:27:06;;;;;;;1.00;0.70;;;37.80;25.40;;;;;;5058811;28;20025;-77
2021/08/14 10:29:52;;;;;;;1.33;0.65;;;37.40;26.20;;;;;;5058220;28;20076;-77
2021/08/14 10:32:41;;;;;;;1.23;0.55;;;37.20;27.00;;;;;;5058319;28;20032;-77
2021/08/14 10:35:13;;;;;;;0.98;0.60;;;36.60;29.20;;;;;;5052397;28;20492;-77
2021/08/14 10:37:43;;;;;;;1.52;0.70;;;35.90;30.00;;;;;;5058177;28;20052;-77
2021/08/14 10:40:09;;;;;;;1.27;0.57;;;35.00;33.00;;;;;;5060043;28;20096;-77
2021/08/14 10:42:53;;;;;;;1.88;0.70;;;34.30;33.10;;;;;;5076921;28;20504;-77
2021/08/14 10:45:21;;;;;;;1.35;0.35;;;33.60;30.80;;;;;;5073995;28;20503;-76
2021/08/14 10:47:49;;;;;;;1.27;0.50;;;32.90;32.50;;;;;;5057967;28;20048;-77
2021/08/14 10:50:33;;;;;;;1.63;0.55;;;32.40;35.50;;;;;;5057984;28;20027;-76
2021/08/14 10:53:18;;;;;;;0.95;0.50;;;32.40;33.60;;;;;;5057816;28;20487;-76
2021/08/14 10:55:47;;;;;;;2.55;0.60;;;32.00;37.60;;;;;;5057919;28;20082;-76
2021/08/14 10:58:18;;;;;;;1.20;0.60;;;31.50;37.80;;;;;;5058113;28;20456;-76
2021/08/14 11:00:44;;;;;;;0.80;0.50;;;31.30;37.10;;;;;;5057735;28;20368;-77
2021/08/14 11:03:11;;;;;;;1.10;0.65;;;31.00;38.30;;;;;;5069982;28;20035;-76
2021/08/14 11:05:41;;;;;;;1.27;0.57;;;31.00;36.70;;;;;;5077080;28;20025;-77
2021/08/14 11:08:23;;;;;;;1.20;0.60;;;30.90;36.00;;;;;;5057812;28;20021;-76
2021/08/14 11:10:49;;;;;;;1.10;0.50;;;30.80;37.50;;;;;;5057599;28;20087;-76
2021/08/14 11:13:47;;;;;;;1.63;0.60;;;31.10;37.80;;;;;;5057461;28;20096;-76
2021/08/14 11:16:51;;;;;;;1.42;0.60;;;30.90;37.60;;;;;;5016533;28;20029;-76
2021/08/14 11:19:40;;;;;;;1.02;0.55;;;31.00;38.70;;;;;;5057332;28;20065;-76
2021/08/14 11:22:26;;;;;;;1.02;0.55;;;30.90;36.40;;;;;;5056054;28;20025;-76
2021/08/14 11:24:53;;;;;;;1.15;0.60;;;30.80;35.20;;;;;;5057272;28;20025;-77
2021/08/14 11:27:22;;;;;;;1.30;0.70;;;30.70;37.50;;;;;;5061975;28;20027;-76
2021/08/14 11:29:54;;;;;;;1.85;0.57;;;30.80;37.30;;;;;;5076217;28;20035;-76
2021/08/14 11:32:20;;;;;;;1.77;0.63;;;30.60;38.50;;;;;;5069314;28;20396;-76
2021/08/14 11:34:48;;;;;;;1.00;0.60;;;30.40;39.30;;;;;;5055892;28;20103;-77
2021/08/14 11:37:14;;;;;;;1.75;0.52;;;30.40;39.70;;;;;;5055870;28;20029;-76
2021/08/14 11:39:40;;;;;;;1.10;0.50;;;30.30;40.30;;;;;;5066312;28;20108;-76
2021/08/14 11:42:10;;;;;;;0.88;0.60;;;30.30;37.60;;;;;;5076793;28;20043;-76
2021/08/14 11:44:36;;;;;;;1.27;0.57;;;30.30;38.20;;;;;;5065824;28;20048;-76
2021/08/14 11:47:03;;;;;;;1.00;0.50;;;30.30;38.50;;;;;;5073133;28;20503;-77
2021/08/14 11:49:29;;;;;;;1.63;0.55;;;30.40;37.40;;;;;;5077018;28;20029;-77
2021/08/14 11:52:05;;;;;;;0.80;0.40;;;30.60;38.70;;;;;;5065210;28;20568;-76
2021/08/14 11:54:32;;;;;;;1.10;0.60;;;30.70;39.20;;;;;;5056681;28;20075;-77
2021/08/14 11:57:12;;;;;;;1.98;0.65;;;30.40;38.00;;;;;;5069148;28;20029;-77
2021/08/14 11:59:38;;;;;;;0.75;0.40;;;30.30;38.80;;;;;;5056742;28;20018;-76
2021/08/14 12:02:04;;;;;;;1.10;0.50;;;30.40;36.00;;;;;;5056525;28;20039;-76
2021/08/14 12:04:30;;;;;;;1.20;0.70;;;30.40;36.90;;;;;;5056533;28;20491;-76
2021/08/14 12:06:58;;;;;;;1.30;0.55;;;30.40;36.70;;;;;;5056570;28;20045;-76
2021/08/14 12:09:25;;;;;;;1.52;0.60;;;30.50;37.40;;;;;;5056535;28;20032;-76
2021/08/14 12:11:54;;;;;;;1.60;0.47;;;30.70;36.50;;;;;;5059379;28;20025;-76
2021/08/14 12:14:24;;;;;;;0.82;0.50;;;30.60;33.90;;;;;;5076312;28;20036;-76
2021/08/14 12:16:59;;;;;;;;;;;30.40;35.40;;;;;;5076256;28;20031;-76
2021/08/14 12:19:25;;;;;;;1.65;0.50;;;30.40;35.40;;;;;;5058750;28;20383;-76
2021/08/14 12:22:13;;;;;;;1.52;0.60;;;30.50;37.10;;;;;;5056232;28;20087;-76
2021/08/14 12:24:39;;;;;;;1.20;0.60;;;30.50;37.80;;;;;;5055700;28;20094;-76
2021/08/14 12:27:29;;;;;;;0.80;0.38;;;30.50;34.60;;;;;;5056095;28;20091;-77
2021/08/14 12:30:14;;;;;;;0.98;0.45;;;30.60;35.60;;;;;;5055963;28;20043;-76
2021/08/14 12:32:40;;;;;;;0.95;0.50;;;30.60;34.80;;;;;;5056154;28;20114;-76
2021/08/14 12:35:26;;;;;;;1.02;0.60;;;30.40;33.40;;;;;;5055921;28;20029;-76
2021/08/14 12:37:51;;;;;;;0.95;0.45;;;30.40;35.10;;;;;;5055670;28;20033;-76
2021/08/14 12:40:20;;;;;;;0.80;0.40;;;30.30;37.80;;;;;;5059050;28;20031;-76
2021/08/14 12:42:47;;;;;;;1.00;0.40;;;30.30;38.00;;;;;;5075562;28;20062;-76
2021/08/14 12:45:23;;;;;;;1.30;0.60;;;30.40;38.10;;;;;;5062641;28;20319;-76
2021/08/14 12:47:53;;;;;;;2.10;0.60;;;30.50;35.20;;;;;;5055701;28;20385;-76
2021/08/14 12:50:32;;;;;;;0.98;0.50;;;30.50;35.20;;;;;;5055519;28;20514;-76